Samantha, Ohio
Current Conditions -  °F | °C
As of 9:54 AM on Saturday 25 Oct 2014 (Local Time) from KILN Reporting Station
Overcast Overcast  
Wind Chill: 54°   Ceiling: 4400
Heat Index: 54°   Visibility: 7mi
Dew Point: 49°   Wind: 10mph
Humidity: 83%   Direction: 220°SW
Pressure: 29.98"   Gusts: NA
Location:  39.3503°N, 83.5434°W
Report Text: KILN 251354Z AUTO 22009KT 7SM OVC044 12/09 A2998 RMK AO2 SLP160 T01220094
Loading
Personal Weather Stations






























Interactive Weather Map
Tropical Storm Tracking
New forecast layout! Learn more

10-Day Weather Forecast

Advertisements
Track Severe Weather on mobile